sensor_id;sensor_type;location;lat;lon;timestamp;P1;durP1;ratioP1;P2;durP2;ratioP2
45408;SDS011;31162;51.076;3.784;2022-11-15T00:00:43;37.30;;;29.92;;
45408;SDS011;31162;51.076;3.784;2022-11-15T00:03:09;38.00;;;29.90;;
45408;SDS011;31162;51.076;3.784;2022-11-15T00:05:35;34.88;;;28.48;;
45408;SDS011;31162;51.076;3.784;2022-11-15T00:08:01;33.55;;;26.92;;
45408;SDS011;31162;51.076;3.784;2022-11-15T00:10:26;40.47;;;27.60;;
45408;SDS011;31162;51.076;3.784;2022-11-15T00:12:52;29.55;;;25.63;;
45408;SDS011;31162;51.076;3.784;2022-11-15T00:15:18;29.50;;;24.92;;
45408;SDS011;31162;51.076;3.784;2022-11-15T00:17:43;28.08;;;23.98;;
45408;SDS011;31162;51.076;3.784;2022-11-15T00:20:09;33.35;;;23.33;;
45408;SDS011;31162;51.076;3.784;2022-11-15T00:22:36;29.33;;;23.23;;
45408;SDS011;31162;51.076;3.784;2022-11-15T00:25:02;26.67;;;21.00;;
45408;SDS011;31162;51.076;3.784;2022-11-15T00:27:28;26.55;;;21.48;;
45408;SDS011;31162;51.076;3.784;2022-11-15T00:29:54;25.92;;;21.58;;
45408;SDS011;31162;51.076;3.784;2022-11-15T00:32:19;26.95;;;21.20;;
45408;SDS011;31162;51.076;3.784;2022-11-15T00:34:45;24.60;;;20.63;;
45408;SDS011;31162;51.076;3.784;2022-11-15T00:37:10;28.27;;;20.40;;
45408;SDS011;31162;51.076;3.784;2022-11-15T00:39:36;25.48;;;20.20;;
45408;SDS011;31162;51.076;3.784;2022-11-15T00:42:01;26.67;;;20.80;;
45408;SDS011;31162;51.076;3.784;2022-11-15T00:44:27;23.02;;;19.73;;
45408;SDS011;31162;51.076;3.784;2022-11-15T00:46:53;23.23;;;19.88;;
45408;SDS011;31162;51.076;3.784;2022-11-15T00:49:18;24.60;;;20.58;;
45408;SDS011;31162;51.076;3.784;2022-11-15T00:51:44;23.20;;;20.35;;
45408;SDS011;31162;51.076;3.784;2022-11-15T00:54:10;23.98;;;19.33;;
45408;SDS011;31162;51.076;3.784;2022-11-15T00:56:35;23.63;;;19.70;;
45408;SDS011;31162;51.076;3.784;2022-11-15T00:59:01;22.20;;;19.35;;
45408;SDS011;31162;51.076;3.784;2022-11-15T01:01:27;22.23;;;19.10;;
45408;SDS011;31162;51.076;3.784;2022-11-15T01:03:52;22.55;;;18.52;;
45408;SDS011;31162;51.076;3.784;2022-11-15T01:06:18;21.27;;;19.08;;
45408;SDS011;31162;51.076;3.784;2022-11-15T01:08:43;22.65;;;18.92;;
45408;SDS011;31162;51.076;3.784;2022-11-15T01:11:10;25.65;;;20.17;;
45408;SDS011;31162;51.076;3.784;2022-11-15T01:13:37;23.77;;;19.77;;
45408;SDS011;31162;51.076;3.784;2022-11-15T01:16:11;22.52;;;18.75;;
45408;SDS011;31162;51.076;3.784;2022-11-15T01:18:38;26.33;;;20.67;;
45408;SDS011;31162;51.076;3.784;2022-11-15T01:21:08;24.90;;;20.35;;
45408;SDS011;31162;51.076;3.784;2022-11-15T01:23:35;25.33;;;19.55;;
45408;SDS011;31162;51.076;3.784;2022-11-15T01:26:01;24.88;;;20.33;;
45408;SDS011;31162;51.076;3.784;2022-11-15T01:28:29;26.80;;;20.40;;
45408;SDS011;31162;51.076;3.784;2022-11-15T01:31:03;24.03;;;20.53;;
45408;SDS011;31162;51.076;3.784;2022-11-15T01:33:30;24.10;;;19.77;;
45408;SDS011;31162;51.076;3.784;2022-11-15T01:35:59;25.00;;;20.77;;
45408;SDS011;31162;51.076;3.784;2022-11-15T01:38:29;25.77;;;19.48;;
45408;SDS011;31162;51.076;3.784;2022-11-15T01:40:55;22.35;;;19.25;;
45408;SDS011;31162;51.076;3.784;2022-11-15T01:43:25;23.13;;;18.60;;
45408;SDS011;31162;51.076;3.784;2022-11-15T01:46:00;21.90;;;18.52;;
45408;SDS011;31162;51.076;3.784;2022-11-15T01:48:31;20.45;;;18.30;;
45408;SDS011;31162;51.076;3.784;2022-11-15T01:51:02;23.65;;;17.52;;
45408;SDS011;31162;51.076;3.784;2022-11-15T01:53:32;20.75;;;16.50;;
45408;SDS011;31162;51.076;3.784;2022-11-15T01:56:05;21.52;;;17.27;;
45408;SDS011;31162;51.076;3.784;2022-11-15T01:58:34;23.63;;;17.45;;
45408;SDS011;31162;51.076;3.784;2022-11-15T02:01:01;21.58;;;16.08;;
45408;SDS011;31162;51.076;3.784;2022-11-15T02:03:31;18.60;;;15.52;;
45408;SDS011;31162;51.076;3.784;2022-11-15T02:06:03;19.42;;;15.07;;
45408;SDS011;31162;51.076;3.784;2022-11-15T02:08:30;22.60;;;15.82;;
45408;SDS011;31162;51.076;3.784;2022-11-15T02:10:55;23.67;;;16.42;;
45408;SDS011;31162;51.076;3.784;2022-11-15T02:13:21;18.92;;;15.35;;
45408;SDS011;31162;51.076;3.784;2022-11-15T02:18:35;17.85;;;13.95;;
45408;SDS011;31162;51.076;3.784;2022-11-15T02:32:27;15.93;;;12.95;;
45408;SDS011;31162;51.076;3.784;2022-11-15T02:37:52;16.48;;;11.95;;
45408;SDS011;31162;51.076;3.784;2022-11-15T02:40:39;17.40;;;10.93;;
45408;SDS011;31162;51.076;3.784;2022-11-15T02:43:15;16.13;;;11.45;;
45408;SDS011;31162;51.076;3.784;2022-11-15T02:48:39;18.35;;;10.70;;
45408;SDS011;31162;51.076;3.784;2022-11-15T02:51:07;14.20;;;10.35;;
45408;SDS011;31162;51.076;3.784;2022-11-15T02:53:34;13.77;;;10.35;;
45408;SDS011;31162;51.076;3.784;2022-11-15T02:55:59;15.95;;;9.95;;
45408;SDS011;31162;51.076;3.784;2022-11-15T03:01:22;12.77;;;10.00;;
45408;SDS011;31162;51.076;3.784;2022-11-15T03:04:19;11.27;;;8.98;;
45408;SDS011;31162;51.076;3.784;2022-11-15T03:07:07;12.88;;;8.85;;
45408;SDS011;31162;51.076;3.784;2022-11-15T03:15:21;15.25;;;8.15;;
45408;SDS011;31162;51.076;3.784;2022-11-15T03:20:42;9.52;;;7.70;;
45408;SDS011;31162;51.076;3.784;2022-11-15T03:23:09;14.50;;;8.10;;
45408;SDS011;31162;51.076;3.784;2022-11-15T03:25:38;13.00;;;7.95;;
45408;SDS011;31162;51.076;3.784;2022-11-15T03:28:12;10.82;;;7.88;;
45408;SDS011;31162;51.076;3.784;2022-11-15T03:30:41;10.90;;;7.68;;
45408;SDS011;31162;51.076;3.784;2022-11-15T03:33:08;9.57;;;7.50;;
45408;SDS011;31162;51.076;3.784;2022-11-15T03:35:41;13.98;;;8.80;;
45408;SDS011;31162;51.076;3.784;2022-11-15T03:38:25;9.85;;;7.80;;
45408;SDS011;31162;51.076;3.784;2022-11-15T03:43:33;11.60;;;6.85;;
45408;SDS011;31162;51.076;3.784;2022-11-15T03:46:11;10.77;;;7.23;;
45408;SDS011;31162;51.076;3.784;2022-11-15T03:48:41;11.25;;;7.03;;
45408;SDS011;31162;51.076;3.784;2022-11-15T03:51:11;10.02;;;7.20;;
45408;SDS011;31162;51.076;3.784;2022-11-15T03:53:38;15.10;;;6.70;;
45408;SDS011;31162;51.076;3.784;2022-11-15T03:56:05;11.68;;;6.90;;
45408;SDS011;31162;51.076;3.784;2022-11-15T03:58:31;12.55;;;7.13;;
45408;SDS011;31162;51.076;3.784;2022-11-15T04:00:57;10.35;;;6.65;;
45408;SDS011;31162;51.076;3.784;2022-11-15T04:03:24;9.45;;;6.38;;
45408;SDS011;31162;51.076;3.784;2022-11-15T04:05:50;12.27;;;6.70;;
45408;SDS011;31162;51.076;3.784;2022-11-15T04:08:16;10.77;;;6.50;;
45408;SDS011;31162;51.076;3.784;2022-11-15T04:10:41;9.07;;;6.70;;
45408;SDS011;31162;51.076;3.784;2022-11-15T04:13:07;12.18;;;7.03;;
45408;SDS011;31162;51.076;3.784;2022-11-15T04:15:33;11.00;;;7.03;;
45408;SDS011;31162;51.076;3.784;2022-11-15T04:17:58;10.05;;;6.30;;
45408;SDS011;31162;51.076;3.784;2022-11-15T04:20:28;10.70;;;6.22;;
45408;SDS011;31162;51.076;3.784;2022-11-15T04:23:16;11.30;;;6.93;;
45408;SDS011;31162;51.076;3.784;2022-11-15T04:26:03;12.60;;;6.82;;
45408;SDS011;31162;51.076;3.784;2022-11-15T04:28:36;10.13;;;6.55;;
45408;SDS011;31162;51.076;3.784;2022-11-15T04:31:21;14.77;;;7.03;;
45408;SDS011;31162;51.076;3.784;2022-11-15T04:33:46;9.55;;;6.38;;
45408;SDS011;31162;51.076;3.784;2022-11-15T04:36:12;9.25;;;6.13;;
45408;SDS011;31162;51.076;3.784;2022-11-15T04:38:56;8.77;;;5.95;;
45408;SDS011;31162;51.076;3.784;2022-11-15T04:41:21;9.75;;;6.07;;
45408;SDS011;31162;51.076;3.784;2022-11-15T04:43:47;7.43;;;6.00;;
45408;SDS011;31162;51.076;3.784;2022-11-15T04:46:13;11.40;;;6.30;;
45408;SDS011;31162;51.076;3.784;2022-11-15T04:48:38;17.80;;;7.10;;
45408;SDS011;31162;51.076;3.784;2022-11-15T04:51:04;83.68;;;75.30;;
45408;SDS011;31162;51.076;3.784;2022-11-15T04:53:30;14.63;;;7.78;;
45408;SDS011;31162;51.076;3.784;2022-11-15T04:55:55;35.13;;;29.88;;
45408;SDS011;31162;51.076;3.784;2022-11-15T04:58:21;9.98;;;6.68;;
45408;SDS011;31162;51.076;3.784;2022-11-15T05:00:47;10.50;;;6.05;;
45408;SDS011;31162;51.076;3.784;2022-11-15T05:03:12;10.38;;;6.20;;
45408;SDS011;31162;51.076;3.784;2022-11-15T05:05:57;9.65;;;5.97;;
45408;SDS011;31162;51.076;3.784;2022-11-15T05:08:23;10.88;;;6.07;;
45408;SDS011;31162;51.076;3.784;2022-11-15T05:10:48;14.90;;;6.30;;
45408;SDS011;31162;51.076;3.784;2022-11-15T05:13:14;11.18;;;6.60;;
45408;SDS011;31162;51.076;3.784;2022-11-15T05:15:40;12.05;;;7.00;;
45408;SDS011;31162;51.076;3.784;2022-11-15T05:18:05;15.00;;;7.00;;
45408;SDS011;31162;51.076;3.784;2022-11-15T05:20:31;11.65;;;6.40;;
45408;SDS011;31162;51.076;3.784;2022-11-15T05:22:57;12.20;;;6.50;;
45408;SDS011;31162;51.076;3.784;2022-11-15T05:25:22;13.93;;;7.35;;
45408;SDS011;31162;51.076;3.784;2022-11-15T05:27:49;14.50;;;7.32;;
45408;SDS011;31162;51.076;3.784;2022-11-15T05:30:15;18.30;;;12.00;;
45408;SDS011;31162;51.076;3.784;2022-11-15T05:32:41;15.45;;;7.40;;
45408;SDS011;31162;51.076;3.784;2022-11-15T05:35:08;11.80;;;7.07;;
45408;SDS011;31162;51.076;3.784;2022-11-15T05:37:43;17.17;;;7.22;;
45408;SDS011;31162;51.076;3.784;2022-11-15T05:40:09;12.93;;;7.50;;
45408;SDS011;31162;51.076;3.784;2022-11-15T05:42:35;15.95;;;6.60;;
45408;SDS011;31162;51.076;3.784;2022-11-15T05:45:01;12.10;;;7.38;;
45408;SDS011;31162;51.076;3.784;2022-11-15T05:47:29;11.70;;;6.90;;
45408;SDS011;31162;51.076;3.784;2022-11-15T05:49:55;9.68;;;6.70;;
45408;SDS011;31162;51.076;3.784;2022-11-15T05:52:23;14.75;;;7.00;;
45408;SDS011;31162;51.076;3.784;2022-11-15T05:54:52;11.52;;;7.00;;
45408;SDS011;31162;51.076;3.784;2022-11-15T05:57:19;14.35;;;6.55;;
45408;SDS011;31162;51.076;3.784;2022-11-15T05:59:45;12.30;;;6.88;;
45408;SDS011;31162;51.076;3.784;2022-11-15T06:02:10;12.95;;;6.40;;
45408;SDS011;31162;51.076;3.784;2022-11-15T06:04:36;13.25;;;7.05;;
45408;SDS011;31162;51.076;3.784;2022-11-15T06:07:02;14.88;;;7.20;;
45408;SDS011;31162;51.076;3.784;2022-11-15T06:09:27;11.95;;;6.60;;
45408;SDS011;31162;51.076;3.784;2022-11-15T06:11:53;9.77;;;7.10;;
45408;SDS011;31162;51.076;3.784;2022-11-15T06:14:19;12.80;;;6.78;;
45408;SDS011;31162;51.076;3.784;2022-11-15T06:16:44;66.18;;;54.20;;
45408;SDS011;31162;51.076;3.784;2022-11-15T06:19:10;14.45;;;10.35;;
45408;SDS011;31162;51.076;3.784;2022-11-15T06:21:36;13.23;;;8.43;;
45408;SDS011;31162;51.076;3.784;2022-11-15T06:24:01;14.60;;;8.30;;
45408;SDS011;31162;51.076;3.784;2022-11-15T06:26:27;15.32;;;8.20;;
45408;SDS011;31162;51.076;3.784;2022-11-15T06:28:53;14.48;;;8.45;;
45408;SDS011;31162;51.076;3.784;2022-11-15T06:31:18;15.18;;;9.20;;
45408;SDS011;31162;51.076;3.784;2022-11-15T06:33:44;13.88;;;9.18;;
45408;SDS011;31162;51.076;3.784;2022-11-15T06:36:11;14.30;;;9.55;;
45408;SDS011;31162;51.076;3.784;2022-11-15T06:38:42;13.27;;;9.10;;
45408;SDS011;31162;51.076;3.784;2022-11-15T06:41:09;15.18;;;9.30;;
45408;SDS011;31162;51.076;3.784;2022-11-15T06:43:36;15.52;;;9.15;;
45408;SDS011;31162;51.076;3.784;2022-11-15T06:46:02;12.85;;;9.68;;
45408;SDS011;31162;51.076;3.784;2022-11-15T06:48:29;10.65;;;8.82;;
45408;SDS011;31162;51.076;3.784;2022-11-15T06:50:57;16.75;;;9.88;;
45408;SDS011;31162;51.076;3.784;2022-11-15T06:53:23;14.95;;;10.10;;
45408;SDS011;31162;51.076;3.784;2022-11-15T06:55:50;13.50;;;8.85;;
45408;SDS011;31162;51.076;3.784;2022-11-15T06:58:15;14.32;;;9.57;;
45408;SDS011;31162;51.076;3.784;2022-11-15T07:00:41;13.45;;;9.70;;
45408;SDS011;31162;51.076;3.784;2022-11-15T07:03:07;13.55;;;8.88;;
45408;SDS011;31162;51.076;3.784;2022-11-15T07:05:33;11.82;;;9.35;;
45408;SDS011;31162;51.076;3.784;2022-11-15T07:07:59;15.32;;;8.77;;
45408;SDS011;31162;51.076;3.784;2022-11-15T07:10:25;12.15;;;8.68;;
45408;SDS011;31162;51.076;3.784;2022-11-15T07:12:51;11.18;;;9.07;;
45408;SDS011;31162;51.076;3.784;2022-11-15T07:15:18;15.07;;;9.30;;
45408;SDS011;31162;51.076;3.784;2022-11-15T07:17:45;10.88;;;8.77;;
45408;SDS011;31162;51.076;3.784;2022-11-15T07:20:11;13.20;;;9.23;;
45408;SDS011;31162;51.076;3.784;2022-11-15T07:22:41;11.93;;;8.88;;
45408;SDS011;31162;51.076;3.784;2022-11-15T07:25:07;14.18;;;9.45;;
45408;SDS011;31162;51.076;3.784;2022-11-15T07:27:33;13.10;;;9.10;;
45408;SDS011;31162;51.076;3.784;2022-11-15T07:30:00;13.13;;;8.68;;
45408;SDS011;31162;51.076;3.784;2022-11-15T07:32:26;13.23;;;8.45;;
45408;SDS011;31162;51.076;3.784;2022-11-15T07:34:52;13.60;;;10.05;;
45408;SDS011;31162;51.076;3.784;2022-11-15T07:37:18;15.77;;;9.13;;
45408;SDS011;31162;51.076;3.784;2022-11-15T07:39:43;23.27;;;12.38;;
45408;SDS011;31162;51.076;3.784;2022-11-15T07:42:09;17.58;;;9.88;;
45408;SDS011;31162;51.076;3.784;2022-11-15T07:44:54;25.58;;;12.25;;
45408;SDS011;31162;51.076;3.784;2022-11-15T07:47:19;28.17;;;12.80;;
45408;SDS011;31162;51.076;3.784;2022-11-15T07:49:45;18.98;;;9.80;;
45408;SDS011;31162;51.076;3.784;2022-11-15T07:52:12;14.68;;;9.40;;
45408;SDS011;31162;51.076;3.784;2022-11-15T07:54:38;12.57;;;8.65;;
45408;SDS011;31162;51.076;3.784;2022-11-15T07:57:04;12.70;;;9.55;;
45408;SDS011;31162;51.076;3.784;2022-11-15T07:59:29;11.73;;;8.25;;
45408;SDS011;31162;51.076;3.784;2022-11-15T08:01:55;12.25;;;8.38;;
45408;SDS011;31162;51.076;3.784;2022-11-15T08:04:21;12.68;;;8.43;;
45408;SDS011;31162;51.076;3.784;2022-11-15T08:06:47;13.10;;;8.05;;
45408;SDS011;31162;51.076;3.784;2022-11-15T08:09:12;11.20;;;6.65;;
45408;SDS011;31162;51.076;3.784;2022-11-15T08:11:38;8.90;;;6.78;;
45408;SDS011;31162;51.076;3.784;2022-11-15T08:14:04;11.18;;;6.00;;
45408;SDS011;31162;51.076;3.784;2022-11-15T08:16:30;10.75;;;6.00;;
45408;SDS011;31162;51.076;3.784;2022-11-15T08:18:55;6.65;;;5.18;;
45408;SDS011;31162;51.076;3.784;2022-11-15T08:21:21;6.03;;;5.05;;
45408;SDS011;31162;51.076;3.784;2022-11-15T08:23:48;7.57;;;5.35;;
45408;SDS011;31162;51.076;3.784;2022-11-15T08:26:13;10.82;;;6.18;;
45408;SDS011;31162;51.076;3.784;2022-11-15T08:28:39;6.43;;;4.57;;
45408;SDS011;31162;51.076;3.784;2022-11-15T08:31:05;6.25;;;3.95;;
45408;SDS011;31162;51.076;3.784;2022-11-15T08:33:31;6.65;;;3.78;;
45408;SDS011;31162;51.076;3.784;2022-11-15T08:35:58;6.72;;;4.47;;
45408;SDS011;31162;51.076;3.784;2022-11-15T08:38:25;6.03;;;3.97;;
45408;SDS011;31162;51.076;3.784;2022-11-15T08:40:53;6.07;;;3.65;;
45408;SDS011;31162;51.076;3.784;2022-11-15T08:43:26;7.28;;;3.33;;
45408;SDS011;31162;51.076;3.784;2022-11-15T08:45:51;6.07;;;3.50;;
45408;SDS011;31162;51.076;3.784;2022-11-15T08:48:21;7.07;;;2.97;;
45408;SDS011;31162;51.076;3.784;2022-11-15T08:50:47;6.35;;;2.67;;
45408;SDS011;31162;51.076;3.784;2022-11-15T08:53:12;9.48;;;3.05;;
45408;SDS011;31162;51.076;3.784;2022-11-15T08:55:38;4.28;;;2.55;;
45408;SDS011;31162;51.076;3.784;2022-11-15T08:58:05;7.03;;;2.67;;
45408;SDS011;31162;51.076;3.784;2022-11-15T09:00:32;5.35;;;3.05;;
45408;SDS011;31162;51.076;3.784;2022-11-15T09:02:58;4.82;;;2.45;;
45408;SDS011;31162;51.076;3.784;2022-11-15T09:05:24;4.40;;;2.67;;
45408;SDS011;31162;51.076;3.784;2022-11-15T09:07:53;4.90;;;2.40;;
45408;SDS011;31162;51.076;3.784;2022-11-15T09:10:20;6.32;;;2.25;;
45408;SDS011;31162;51.076;3.784;2022-11-15T09:12:46;4.53;;;2.38;;
45408;SDS011;31162;51.076;3.784;2022-11-15T09:15:14;3.90;;;2.08;;
45408;SDS011;31162;51.076;3.784;2022-11-15T09:17:40;5.63;;;2.50;;
45408;SDS011;31162;51.076;3.784;2022-11-15T09:20:07;5.68;;;2.30;;
45408;SDS011;31162;51.076;3.784;2022-11-15T09:22:34;6.25;;;2.22;;
45408;SDS011;31162;51.076;3.784;2022-11-15T09:25:01;5.45;;;2.05;;
45408;SDS011;31162;51.076;3.784;2022-11-15T09:27:31;4.90;;;1.92;;
45408;SDS011;31162;51.076;3.784;2022-11-15T09:29:56;9.82;;;2.10;;
45408;SDS011;31162;51.076;3.784;2022-11-15T09:32:22;4.55;;;2.45;;
45408;SDS011;31162;51.076;3.784;2022-11-15T09:34:51;4.93;;;1.85;;
45408;SDS011;31162;51.076;3.784;2022-11-15T09:37:17;7.22;;;1.60;;
45408;SDS011;31162;51.076;3.784;2022-11-15T09:39:42;4.30;;;1.70;;
45408;SDS011;31162;51.076;3.784;2022-11-15T09:44:50;5.60;;;1.30;;
45408;SDS011;31162;51.076;3.784;2022-11-15T09:50:17;4.25;;;1.27;;
45408;SDS011;31162;51.076;3.784;2022-11-15T09:53:08;3.58;;;1.40;;
45408;SDS011;31162;51.076;3.784;2022-11-15T09:55:40;6.75;;;1.70;;
45408;SDS011;31162;51.076;3.784;2022-11-15T09:58:24;3.65;;;1.45;;
45408;SDS011;31162;51.076;3.784;2022-11-15T10:00:59;7.38;;;2.13;;
45408;SDS011;31162;51.076;3.784;2022-11-15T10:03:31;4.57;;;1.30;;
45408;SDS011;31162;51.076;3.784;2022-11-15T10:06:03;9.05;;;1.65;;
45408;SDS011;31162;51.076;3.784;2022-11-15T10:11:03;4.97;;;1.60;;
45408;SDS011;31162;51.076;3.784;2022-11-15T10:13:41;6.75;;;1.52;;
45408;SDS011;31162;51.076;3.784;2022-11-15T10:16:15;6.88;;;1.67;;
45408;SDS011;31162;51.076;3.784;2022-11-15T10:24:57;3.28;;;1.38;;
45408;SDS011;31162;51.076;3.784;2022-11-15T10:27:34;5.75;;;1.27;;
45408;SDS011;31162;51.076;3.784;2022-11-15T10:30:01;4.70;;;1.30;;
45408;SDS011;31162;51.076;3.784;2022-11-15T10:32:28;7.85;;;1.40;;
45408;SDS011;31162;51.076;3.784;2022-11-15T10:34:58;5.63;;;1.38;;
45408;SDS011;31162;51.076;3.784;2022-11-15T10:37:27;5.30;;;1.30;;
45408;SDS011;31162;51.076;3.784;2022-11-15T10:40:04;4.03;;;1.50;;
45408;SDS011;31162;51.076;3.784;2022-11-15T10:42:31;7.85;;;2.08;;
45408;SDS011;31162;51.076;3.784;2022-11-15T10:44:57;6.40;;;1.25;;
45408;SDS011;31162;51.076;3.784;2022-11-15T10:47:27;3.92;;;1.10;;
45408;SDS011;31162;51.076;3.784;2022-11-15T10:50:04;3.20;;;1.02;;
45408;SDS011;31162;51.076;3.784;2022-11-15T10:52:51;3.47;;;1.35;;
45408;SDS011;31162;51.076;3.784;2022-11-15T10:57:48;5.72;;;1.27;;
45408;SDS011;31162;51.076;3.784;2022-11-15T11:00:38;5.20;;;1.50;;
45408;SDS011;31162;51.076;3.784;2022-11-15T11:03:27;7.43;;;1.15;;
45408;SDS011;31162;51.076;3.784;2022-11-15T11:08:35;6.55;;;1.35;;
45408;SDS011;31162;51.076;3.784;2022-11-15T11:11:02;4.32;;;1.08;;
45408;SDS011;31162;51.076;3.784;2022-11-15T11:13:33;6.25;;;1.30;;
45408;SDS011;31162;51.076;3.784;2022-11-15T11:18:44;5.40;;;1.15;;
45408;SDS011;31162;51.076;3.784;2022-11-15T11:30:04;4.45;;;1.42;;
45408;SDS011;31162;51.076;3.784;2022-11-15T11:46:47;5.80;;;1.10;;
45408;SDS011;31162;51.076;3.784;2022-11-15T11:49:34;4.93;;;1.43;;
45408;SDS011;31162;51.076;3.784;2022-11-15T11:52:10;5.78;;;1.25;;
45408;SDS011;31162;51.076;3.784;2022-11-15T11:54:49;2.55;;;1.00;;
45408;SDS011;31162;51.076;3.784;2022-11-15T12:00:18;4.55;;;1.30;;
45408;SDS011;31162;51.076;3.784;2022-11-15T12:03:01;5.68;;;1.17;;
45408;SDS011;31162;51.076;3.784;2022-11-15T12:11:03;5.88;;;1.05;;
45408;SDS011;31162;51.076;3.784;2022-11-15T12:13:42;5.03;;;1.20;;
45408;SDS011;31162;51.076;3.784;2022-11-15T12:16:12;4.22;;;1.10;;
45408;SDS011;31162;51.076;3.784;2022-11-15T12:18:41;4.80;;;1.20;;
45408;SDS011;31162;51.076;3.784;2022-11-15T12:23:59;4.50;;;1.20;;
45408;SDS011;31162;51.076;3.784;2022-11-15T12:26:33;5.57;;;1.20;;
45408;SDS011;31162;51.076;3.784;2022-11-15T12:29:11;4.60;;;1.23;;
45408;SDS011;31162;51.076;3.784;2022-11-15T12:31:45;3.47;;;1.10;;
45408;SDS011;31162;51.076;3.784;2022-11-15T12:34:29;3.15;;;1.13;;
45408;SDS011;31162;51.076;3.784;2022-11-15T12:37:01;3.95;;;1.15;;
45408;SDS011;31162;51.076;3.784;2022-11-15T12:40:04;5.40;;;1.10;;
45408;SDS011;31162;51.076;3.784;2022-11-15T12:43:05;6.13;;;1.20;;
45408;SDS011;31162;51.076;3.784;2022-11-15T12:45:35;3.13;;;1.15;;
45408;SDS011;31162;51.076;3.784;2022-11-15T13:01:52;4.38;;;1.20;;
45408;SDS011;31162;51.076;3.784;2022-11-15T13:11:57;4.33;;;1.13;;
45408;SDS011;31162;51.076;3.784;2022-11-15T13:14:47;3.90;;;1.48;;
45408;SDS011;31162;51.076;3.784;2022-11-15T13:17:18;4.10;;;1.23;;
45408;SDS011;31162;51.076;3.784;2022-11-15T13:19:52;3.63;;;1.15;;
45408;SDS011;31162;51.076;3.784;2022-11-15T13:22:22;3.15;;;1.20;;
45408;SDS011;31162;51.076;3.784;2022-11-15T13:25:14;5.03;;;1.40;;
45408;SDS011;31162;51.076;3.784;2022-11-15T13:27:44;3.67;;;1.30;;
45408;SDS011;31162;51.076;3.784;2022-11-15T13:30:16;6.15;;;1.40;;
45408;SDS011;31162;51.076;3.784;2022-11-15T13:32:46;2.33;;;1.38;;
45408;SDS011;31162;51.076;3.784;2022-11-15T13:35:25;5.03;;;1.50;;
45408;SDS011;31162;51.076;3.784;2022-11-15T13:37:53;6.43;;;1.52;;
45408;SDS011;31162;51.076;3.784;2022-11-15T13:40:25;4.75;;;1.50;;
45408;SDS011;31162;51.076;3.784;2022-11-15T13:42:52;4.80;;;1.70;;
45408;SDS011;31162;51.076;3.784;2022-11-15T13:45:19;4.28;;;1.90;;
45408;SDS011;31162;51.076;3.784;2022-11-15T13:47:50;4.25;;;1.45;;
45408;SDS011;31162;51.076;3.784;2022-11-15T13:50:21;4.15;;;1.80;;
45408;SDS011;31162;51.076;3.784;2022-11-15T13:52:50;3.05;;;1.33;;
45408;SDS011;31162;51.076;3.784;2022-11-15T13:55:17;4.93;;;1.92;;
45408;SDS011;31162;51.076;3.784;2022-11-15T14:06:07;6.25;;;1.75;;
45408;SDS011;31162;51.076;3.784;2022-11-15T14:08:38;3.70;;;1.70;;
45408;SDS011;31162;51.076;3.784;2022-11-15T14:11:09;4.82;;;2.25;;
45408;SDS011;31162;51.076;3.784;2022-11-15T14:13:38;6.22;;;2.17;;
45408;SDS011;31162;51.076;3.784;2022-11-15T14:21:12;3.95;;;1.98;;
45408;SDS011;31162;51.076;3.784;2022-11-15T14:23:38;4.00;;;2.10;;
45408;SDS011;31162;51.076;3.784;2022-11-15T14:26:04;3.30;;;2.03;;
45408;SDS011;31162;51.076;3.784;2022-11-15T14:28:30;5.15;;;2.38;;
45408;SDS011;31162;51.076;3.784;2022-11-15T14:31:01;4.70;;;2.30;;
45408;SDS011;31162;51.076;3.784;2022-11-15T14:33:35;4.03;;;2.05;;
45408;SDS011;31162;51.076;3.784;2022-11-15T14:36:15;3.33;;;1.83;;
45408;SDS011;31162;51.076;3.784;2022-11-15T14:38:42;5.80;;;1.80;;
45408;SDS011;31162;51.076;3.784;2022-11-15T14:41:22;2.25;;;1.80;;
45408;SDS011;31162;51.076;3.784;2022-11-15T14:43:49;4.43;;;2.13;;
45408;SDS011;31162;51.076;3.784;2022-11-15T14:46:16;5.80;;;2.60;;
45408;SDS011;31162;51.076;3.784;2022-11-15T14:48:41;3.72;;;1.80;;
45408;SDS011;31162;51.076;3.784;2022-11-15T14:51:11;4.57;;;2.70;;
45408;SDS011;31162;51.076;3.784;2022-11-15T14:53:46;5.85;;;1.63;;
45408;SDS011;31162;51.076;3.784;2022-11-15T14:56:12;5.47;;;2.10;;
45408;SDS011;31162;51.076;3.784;2022-11-15T14:58:38;3.78;;;1.85;;
45408;SDS011;31162;51.076;3.784;2022-11-15T15:01:17;4.03;;;2.50;;
45408;SDS011;31162;51.076;3.784;2022-11-15T15:03:46;3.45;;;2.08;;
45408;SDS011;31162;51.076;3.784;2022-11-15T15:06:11;5.45;;;3.97;;
45408;SDS011;31162;51.076;3.784;2022-11-15T15:08:39;5.50;;;4.97;;
45408;SDS011;31162;51.076;3.784;2022-11-15T15:11:14;5.93;;;3.10;;
45408;SDS011;31162;51.076;3.784;2022-11-15T15:13:46;6.25;;;4.90;;
45408;SDS011;31162;51.076;3.784;2022-11-15T15:16:11;6.68;;;5.57;;
45408;SDS011;31162;51.076;3.784;2022-11-15T15:18:37;4.68;;;3.33;;
45408;SDS011;31162;51.076;3.784;2022-11-15T15:21:04;4.40;;;3.35;;
45408;SDS011;31162;51.076;3.784;2022-11-15T15:23:52;5.38;;;4.70;;
45408;SDS011;31162;51.076;3.784;2022-11-15T15:26:21;4.70;;;3.60;;
45408;SDS011;31162;51.076;3.784;2022-11-15T15:28:50;7.20;;;3.85;;
45408;SDS011;31162;51.076;3.784;2022-11-15T15:31:16;6.38;;;4.78;;
45408;SDS011;31162;51.076;3.784;2022-11-15T15:33:42;7.82;;;4.50;;
45408;SDS011;31162;51.076;3.784;2022-11-15T15:36:10;5.47;;;4.53;;
45408;SDS011;31162;51.076;3.784;2022-11-15T15:38:37;5.20;;;4.70;;
45408;SDS011;31162;51.076;3.784;2022-11-15T15:41:07;7.28;;;4.90;;
45408;SDS011;31162;51.076;3.784;2022-11-15T15:43:35;5.80;;;4.45;;
45408;SDS011;31162;51.076;3.784;2022-11-15T15:46:00;5.88;;;5.35;;
45408;SDS011;31162;51.076;3.784;2022-11-15T15:48:26;6.47;;;5.80;;
45408;SDS011;31162;51.076;3.784;2022-11-15T15:50:51;5.70;;;4.78;;
45408;SDS011;31162;51.076;3.784;2022-11-15T15:53:17;7.03;;;5.30;;
45408;SDS011;31162;51.076;3.784;2022-11-15T15:55:42;5.53;;;4.90;;
45408;SDS011;31162;51.076;3.784;2022-11-15T15:58:08;6.45;;;5.03;;
45408;SDS011;31162;51.076;3.784;2022-11-15T16:00:34;7.03;;;5.55;;
45408;SDS011;31162;51.076;3.784;2022-11-15T16:03:00;6.45;;;5.72;;
45408;SDS011;31162;51.076;3.784;2022-11-15T16:05:25;6.75;;;5.30;;
45408;SDS011;31162;51.076;3.784;2022-11-15T16:07:51;7.90;;;6.20;;
45408;SDS011;31162;51.076;3.784;2022-11-15T16:12:47;12.32;;;10.27;;
45408;SDS011;31162;51.076;3.784;2022-11-15T16:15:13;7.75;;;5.70;;
45408;SDS011;31162;51.076;3.784;2022-11-15T16:17:40;13.75;;;11.70;;
45408;SDS011;31162;51.076;3.784;2022-11-15T16:20:15;7.03;;;6.32;;
45408;SDS011;31162;51.076;3.784;2022-11-15T16:22:48;10.70;;;9.48;;
45408;SDS011;31162;51.076;3.784;2022-11-15T16:25:14;6.00;;;5.45;;
45408;SDS011;31162;51.076;3.784;2022-11-15T16:27:39;6.15;;;5.55;;
45408;SDS011;31162;51.076;3.784;2022-11-15T16:30:19;9.18;;;8.20;;
45408;SDS011;31162;51.076;3.784;2022-11-15T16:32:46;11.77;;;10.57;;
45408;SDS011;31162;51.076;3.784;2022-11-15T16:35:12;15.05;;;13.45;;
45408;SDS011;31162;51.076;3.784;2022-11-15T16:37:39;7.35;;;5.68;;
45408;SDS011;31162;51.076;3.784;2022-11-15T16:40:48;10.55;;;9.48;;
45408;SDS011;31162;51.076;3.784;2022-11-15T16:42:59;10.27;;;8.85;;
45408;SDS011;31162;51.076;3.784;2022-11-15T16:45:27;8.88;;;8.02;;
45408;SDS011;31162;51.076;3.784;2022-11-15T16:47:55;10.77;;;9.45;;
45408;SDS011;31162;51.076;3.784;2022-11-15T16:52:52;8.57;;;7.60;;
45408;SDS011;31162;51.076;3.784;2022-11-15T16:55:19;8.43;;;7.60;;
45408;SDS011;31162;51.076;3.784;2022-11-15T16:57:46;8.60;;;7.75;;
45408;SDS011;31162;51.076;3.784;2022-11-15T17:00:12;9.73;;;8.77;;